Time;durP1;ratioP1;P1;durP2;ratioP2;P2;SDS_P1;SDS_P2;PMS_P1;PMS_P2;Temp;Humidity;BMP_temperature;BMP_pressure;BME280_temperature;BME280_humidity;BME280_pressure;Samples;Min_cycle;Max_cycle;Signal;HPM_P1;HPM_P2
2022/03/21 00:00:30;;;;;;;10.87;2.20;;;;;;;13.77;nan;101108.97;4853282;29;20467;-88
2022/03/21 00:02:58;;;;;;;12.20;2.90;;;;;;;13.82;nan;101119.34;4840170;29;20500;-89
2022/03/21 00:05:25;;;;;;;11.67;2.20;;;;;;;13.81;nan;101112.16;4840551;29;21006;-87
2022/03/21 00:07:54;;;;;;;10.57;2.40;;;;;;;13.85;nan;101115.34;4840363;29;20460;-88
2022/03/21 00:10:22;;;;;;;5.40;2.27;;;;;;;13.79;nan;101109.63;4854065;29;20511;-88
2022/03/21 00:12:51;;;;;;;14.80;3.87;;;;;;;13.79;nan;101109.63;4840555;29;20468;-88
2022/03/21 00:15:19;;;;;;;10.20;2.60;;;;;;;13.81;nan;101109.41;4826537;29;20477;-89
2022/03/21 00:17:47;;;;;;;19.93;3.10;;;;;;;13.86;nan;101117.00;4866279;29;20469;-88
2022/03/21 00:20:15;;;;;;;5.73;2.70;;;;;;;13.86;nan;101114.25;4862730;29;20463;-88
2022/03/21 00:22:43;;;;;;;17.47;3.10;;;;;;;13.88;nan;101106.66;4866062;29;20469;-88
2022/03/21 00:25:11;;;;;;;13.97;3.83;;;;;;;13.87;nan;101113.22;4866099;29;20450;-89
2022/03/21 00:27:40;;;;;;;21.30;7.70;;;;;;;13.86;nan;101103.28;4866092;29;20453;-88
2022/03/21 00:30:12;;;;;;;24.87;6.90;;;;;;;13.89;nan;101100.13;4896734;29;20534;-89
2022/03/21 00:32:41;;;;;;;20.67;7.83;;;;;;;13.90;nan;101093.56;4895840;29;20512;-88
2022/03/21 00:35:12;;;;;;;21.00;5.00;;;;;;;13.92;nan;101107.97;4819124;29;20548;-88
2022/03/21 00:37:41;;;;;;;24.43;11.33;;;;;;;13.89;nan;101087.22;4810482;29;20847;-89
2022/03/21 00:40:09;;;;;;;26.47;10.77;;;;;;;13.94;nan;101105.84;4782308;30;20823;-88
2022/03/21 00:42:38;;;;;;;14.93;6.43;;;;;;;13.91;nan;101114.50;4721534;30;20458;-87
2022/03/21 00:45:09;;;;;;;10.67;3.47;;;;;;;13.91;nan;101128.25;4732395;30;20458;-87
2022/03/21 00:47:37;;;;;;;14.87;2.07;;;;;;;13.93;nan;101128.88;4717990;30;20457;-87
2022/03/21 00:50:09;;;;;;;14.23;3.30;;;;;;;13.86;nan;101111.53;4732134;30;20527;-87
2022/03/21 00:52:41;;;;;;;7.17;2.77;;;;;;;13.80;nan;101119.56;4739053;30;20455;-87
2022/03/21 00:55:11;;;;;;;13.90;1.97;;;;;;;13.75;nan;101113.81;4767646;30;20492;-87
2022/03/21 00:57:43;;;;;;;8.93;2.63;;;;;;;13.72;nan;101114.22;4788335;29;20457;-87
2022/03/21 01:00:35;;;;;;;9.13;3.90;;;;;;;13.69;nan;101106.41;4823245;29;20506;-89
2022/03/21 01:03:03;;;;;;;13.10;5.43;;;;;;;13.63;nan;101103.66;4893460;29;20822;-88
2022/03/21 01:05:31;;;;;;;16.77;5.17;;;;;;;13.66;nan;101106.00;4883900;29;20448;-88
2022/03/21 01:07:59;;;;;;;11.83;5.10;;;;;;;13.59;nan;101099.59;4915577;29;20481;-88
2022/03/21 01:10:27;;;;;;;15.53;3.80;;;;;;;13.64;nan;101105.34;4851230;29;20500;-87
2022/03/21 01:12:55;;;;;;;15.33;5.67;;;;;;;13.57;nan;101080.59;4880755;29;20484;-87
2022/03/21 01:15:24;;;;;;;19.23;5.43;;;;;;;13.64;nan;101094.34;4869307;29;20477;-87
2022/03/21 01:17:52;;;;;;;16.07;5.80;;;;;;;13.61;nan;101078.28;4884472;29;20453;-87
2022/03/21 01:20:21;;;;;;;13.20;3.60;;;;;;;13.61;nan;101079.13;4884743;29;20454;-87
2022/03/21 01:22:49;;;;;;;10.63;1.73;;;;;;;13.66;nan;101087.56;4900090;29;20449;-87
2022/03/21 01:25:17;;;;;;;24.17;8.77;;;;;;;13.57;nan;101074.25;4884545;29;20449;-88
2022/03/21 01:27:45;;;;;;;17.27;6.67;;;;;;;13.63;nan;101084.41;4884665;29;20459;-89
2022/03/21 01:30:14;;;;;;;36.77;10.97;;;;;;;13.67;nan;101089.28;4913592;29;20458;-88
2022/03/21 01:32:45;;;;;;;36.00;15.37;;;;;;;13.67;nan;101083.78;4884826;29;20473;-89
2022/03/21 01:35:16;;;;;;;50.97;22.73;;;;;;;13.66;nan;101073.03;4881215;29;20900;-89
2022/03/21 01:37:46;;;;;;;22.60;7.23;;;;;;;13.70;nan;101072.38;4866046;29;20454;-88
2022/03/21 01:40:15;;;;;;;15.30;3.70;;;;;;;13.69;nan;101070.69;4898942;29;20875;-89
2022/03/21 01:42:46;;;;;;;14.83;5.63;;;;;;;13.73;nan;101077.47;4884340;29;20450;-89
2022/03/21 01:45:16;;;;;;;19.73;5.37;;;;;;;13.68;nan;101063.50;4899355;29;20453;-88
2022/03/21 01:47:44;;;;;;;9.53;3.67;;;;;;;13.68;nan;101063.50;4874122;29;20988;-89
2022/03/21 01:50:12;;;;;;;9.13;2.80;;;;;;;13.71;nan;101067.72;4899653;29;20971;-89
2022/03/21 01:52:41;;;;;;;8.90;4.53;;;;;;;13.66;nan;101062.84;4899591;29;20803;-89
2022/03/21 01:57:57;;;;;;;6.47;3.57;;;;;;;13.64;nan;101056.75;4888716;29;20450;-89
2022/03/21 02:00:24;;;;;;;12.73;4.90;;;;;;;13.64;nan;101061.41;4884002;29;20800;-89
2022/03/21 02:02:52;;;;;;;13.30;5.83;;;;;;;13.60;nan;101051.88;4877807;29;20474;-88
2022/03/21 02:05:20;;;;;;;10.80;2.93;;;;;;;13.58;nan;101052.06;4865293;29;20454;-89
2022/03/21 02:07:48;;;;;;;7.60;2.23;;;;;;;13.54;nan;101050.78;4850198;29;20442;-88
2022/03/21 02:10:15;;;;;;;11.13;2.90;;;;;;;13.59;nan;101064.75;4853266;29;20518;-88
2022/03/21 02:12:44;;;;;;;15.03;5.73;;;;;;;13.59;nan;101064.75;4876157;29;20474;-88
2022/03/21 02:15:12;;;;;;;13.50;6.70;;;;;;;13.56;nan;101048.69;4898641;29;20481;-87
2022/03/21 02:17:41;;;;;;;12.80;5.23;;;;;;;13.62;nan;101055.25;4867977;29;20513;-88
2022/03/21 02:20:11;;;;;;;11.50;3.23;;;;;;;13.64;nan;101055.91;4883150;29;20533;-88
2022/03/21 02:22:56;;;;;;;7.63;1.90;;;;;;;13.68;nan;101051.66;4899027;29;20465;-88
2022/03/21 02:25:34;;;;;;;10.00;2.37;;;;;;;13.72;nan;101059.28;4884017;29;20458;-89
2022/03/21 02:28:05;;;;;;;8.53;2.10;;;;;;;13.70;nan;101044.91;4868426;29;20454;-88
2022/03/21 02:30:38;;;;;;;8.77;3.30;;;;;;;13.74;nan;101051.69;4883446;29;20457;-88
2022/03/21 02:33:06;;;;;;;17.03;7.80;;;;;;;13.77;nan;101051.28;4886887;29;20458;-88
2022/03/21 02:35:34;;;;;;;7.00;2.20;;;;;;;13.77;nan;101040.28;4883033;29;21525;-89
2022/03/21 02:38:01;;;;;;;6.87;1.30;;;;;;;13.64;nan;101029.28;4873212;29;20445;-89
2022/03/21 02:40:29;;;;;;;8.23;1.60;;;;;;;13.70;nan;101044.91;4882278;29;20464;-88
2022/03/21 02:42:58;;;;;;;9.00;1.63;;;;;;;13.67;nan;101038.97;4883207;29;20949;-88
2022/03/21 02:45:26;;;;;;;13.23;2.00;;;;;;;13.66;nan;101038.13;4898056;29;20505;-89
2022/03/21 02:47:54;;;;;;;7.70;1.30;;;;;;;13.62;nan;101028.63;4875457;29;20457;-89
2022/03/21 02:50:46;;;;;;;9.03;1.27;;;;;;;13.66;nan;101029.91;4867640;29;20528;-88
2022/03/21 02:53:14;;;;;;;6.13;1.30;;;;;;;13.66;nan;101037.31;4882696;29;20454;-88
2022/03/21 02:55:42;;;;;;;8.13;1.33;;;;;;;13.59;nan;101025.47;4867181;29;20488;-88
2022/03/21 02:58:10;;;;;;;5.13;2.00;;;;;;;13.57;nan;101022.91;4897915;29;20968;-88
2022/03/21 03:00:37;;;;;;;8.73;2.37;;;;;;;13.63;nan;101033.09;4883187;29;20959;-89
2022/03/21 03:03:05;;;;;;;4.90;0.80;;;;;;;13.61;nan;101040.69;4882936;29;20949;-89
2022/03/21 03:05:33;;;;;;;6.20;1.10;;;;;;;13.58;nan;101035.59;4883108;29;20434;-89
2022/03/21 03:08:02;;;;;;;3.57;0.93;;;;;;;13.59;nan;101034.53;4882291;29;20999;-89
2022/03/21 03:10:35;;;;;;;5.10;1.10;;;;;;;13.57;nan;101028.41;4882695;29;20464;-88
2022/03/21 03:13:02;;;;;;;8.17;2.30;;;;;;;13.53;nan;101027.13;4898600;29;20513;-89
2022/03/21 03:15:30;;;;;;;3.63;1.20;;;;;;;13.48;nan;101024.13;4880285;29;21038;-88
2022/03/21 03:18:00;;;;;;;9.80;1.07;;;;;;;13.51;nan;101026.47;4873760;29;20453;-89
2022/03/21 03:20:29;;;;;;;4.67;1.13;;;;;;;13.46;nan;101018.88;4879325;29;20933;-88
2022/03/21 03:22:59;;;;;;;6.40;1.10;;;;;;;13.46;nan;101015.28;4885143;29;20478;-89
2022/03/21 03:25:27;;;;;;;7.57;1.93;;;;;;;13.37;nan;101017.34;4897143;29;20452;-88
2022/03/21 03:27:55;;;;;;;9.90;1.40;;;;;;;13.42;nan;101020.34;4866689;29;20979;-89
2022/03/21 03:30:23;;;;;;;5.83;1.00;;;;;;;13.39;nan;101014.41;4882447;29;20449;-88
2022/03/21 03:32:51;;;;;;;7.80;1.07;;;;;;;13.34;nan;101005.94;4881490;29;20478;-88
2022/03/21 03:35:19;;;;;;;7.73;1.13;;;;;;;13.36;nan;101012.06;4897743;29;20489;-89
2022/03/21 03:37:47;;;;;;;7.30;1.13;;;;;;;13.35;nan;101019.44;4871354;29;20457;-88
2022/03/21 03:40:15;;;;;;;6.60;1.77;;;;;;;13.28;nan;101002.09;4866703;29;20449;-88
2022/03/21 03:42:42;;;;;;;2.60;1.03;;;;;;;13.30;nan;101001.91;4866669;29;20462;-89
2022/03/21 03:45:10;;;;;;;12.37;1.70;;;;;;;13.28;nan;101012.22;4882277;29;20450;-89
2022/03/21 03:47:38;;;;;;;3.13;1.43;;;;;;;13.24;nan;101011.81;4881954;29;20508;-88
2022/03/21 03:50:06;;;;;;;7.80;2.43;;;;;;;13.22;nan;101007.59;4895680;29;20462;-89
2022/03/21 03:52:34;;;;;;;2.80;1.40;;;;;;;13.21;nan;101000.41;4897371;29;20516;-88
2022/03/21 03:55:01;;;;;;;9.23;1.73;;;;;;;13.11;nan;101000.72;4881488;29;20482;-89
2022/03/21 03:57:29;;;;;;;4.43;1.17;;;;;;;13.12;nan;101002.44;4874163;29;20976;-89
2022/03/21 03:59:58;;;;;;;6.00;1.30;;;;;;;13.11;nan;101006.22;4881862;29;20945;-89
2022/03/21 04:02:25;;;;;;;2.37;0.93;;;;;;;13.09;nan;101011.06;4896431;29;20458;-88
2022/03/21 04:04:55;;;;;;;3.57;1.20;;;;;;;13.00;nan;101006.81;4866523;29;20457;-89
2022/03/21 04:07:24;;;;;;;3.93;1.03;;;;;;;12.98;nan;101019.88;4881548;29;20457;-89
2022/03/21 04:09:52;;;;;;;5.63;1.03;;;;;;;12.95;nan;101012.06;4879935;29;20485;-89
2022/03/21 04:12:20;;;;;;;4.40;0.70;;;;;;;12.96;nan;101006.38;4880390;29;20461;-89
2022/03/21 04:14:49;;;;;;;2.50;0.90;;;;;;;12.94;nan;101005.72;4880886;29;20492;-88
2022/03/21 04:17:17;;;;;;;3.43;1.27;;;;;;;12.91;nan;101008.00;4881558;29;20466;-89
2022/03/21 04:19:45;;;;;;;7.90;1.23;;;;;;;12.92;nan;101005.06;4881703;29;20458;-88
2022/03/21 04:22:13;;;;;;;4.17;1.00;;;;;;;12.90;nan;101015.41;4882024;29;20449;-89
2022/03/21 04:24:40;;;;;;;8.97;2.10;;;;;;;12.90;nan;101009.91;4880106;29;20465;-88
2022/03/21 04:27:08;;;;;;;7.30;1.10;;;;;;;12.92;nan;101007.81;4881598;29;20462;-88
2022/03/21 04:29:35;;;;;;;5.73;1.07;;;;;;;12.90;nan;101009.06;4881652;29;20464;-89
2022/03/21 04:32:04;;;;;;;2.70;0.70;;;;;;;12.92;nan;101006.97;4866213;29;20477;-88
2022/03/21 04:34:31;;;;;;;4.47;0.97;;;;;;;12.85;nan;101006.94;4883254;29;20815;-89
2022/03/21 04:36:59;;;;;;;6.33;1.00;;;;;;;12.87;nan;101015.81;4872494;29;20453;-87
2022/03/21 04:39:29;;;;;;;4.50;1.60;;;;;;;12.88;nan;101006.56;4903815;29;20936;-88
2022/03/21 04:41:57;;;;;;;7.10;1.40;;;;;;;12.89;nan;101011.00;4902155;29;20453;-88
2022/03/21 04:44:25;;;;;;;2.90;1.37;;;;;;;12.91;nan;101008.88;4887300;29;20512;-88
2022/03/21 04:46:53;;;;;;;14.80;1.97;;;;;;;12.92;nan;101015.19;4887691;29;20941;-88
2022/03/21 04:49:23;;;;;;;7.57;1.90;;;;;;;12.95;nan;101023.03;4887231;29;20496;-88
2022/03/21 04:51:51;;;;;;;9.67;1.90;;;;;;;12.92;nan;101029.75;4887104;29;20465;-88
2022/03/21 04:54:18;;;;;;;3.10;1.10;;;;;;;12.85;nan;101028.91;4872147;29;20457;-88
2022/03/21 04:56:46;;;;;;;5.57;1.30;;;;;;;12.79;nan;101019.56;4872078;29;20543;-88
2022/03/21 04:59:16;;;;;;;2.97;1.10;;;;;;;12.73;nan;101014.03;4871720;29;20516;-89
2022/03/21 05:01:44;;;;;;;4.90;1.53;;;;;;;12.68;nan;101017.41;4902635;29;20952;-88
2022/03/21 05:04:12;;;;;;;9.10;1.50;;;;;;;12.62;nan;101017.34;4887923;29;20454;-88
2022/03/21 05:06:40;;;;;;;6.70;1.57;;;;;;;12.65;nan;101027.91;4889415;29;20872;-88
2022/03/21 05:09:08;;;;;;;4.90;1.60;;;;;;;12.63;nan;101036.34;4881308;29;20461;-87
2022/03/21 05:11:37;;;;;;;5.80;1.03;;;;;;;12.60;nan;101042.22;4876057;29;20541;-89
2022/03/21 05:14:06;;;;;;;4.77;1.20;;;;;;;12.52;nan;101039.63;4883111;29;20961;-89
2022/03/21 05:16:35;;;;;;;9.63;2.70;;;;;;;12.50;nan;101052.72;4897329;29;20999;-89
2022/03/21 05:19:03;;;;;;;6.50;1.60;;;;;;;12.41;nan;101049.25;4887631;29;20448;-89
2022/03/21 05:21:30;;;;;;;5.13;1.57;;;;;;;12.38;nan;101044.16;4876504;29;20461;-89
2022/03/21 05:32:21;;;;;;;12.47;1.37;;;;;;;12.27;nan;101057.56;4903517;29;20473;-88
2022/03/21 05:37:35;;;;;;;4.67;1.10;;;;;;;12.26;nan;101067.69;4902665;29;20441;-89
2022/03/21 05:42:50;;;;;;;8.83;1.40;;;;;;;12.23;nan;101079.03;4902166;29;20516;-88
2022/03/21 05:45:20;;;;;;;6.67;1.80;;;;;;;12.19;nan;101068.66;4871198;29;20461;-88
2022/03/21 05:50:35;;;;;;;7.77;1.67;;;;;;;12.25;nan;101076.09;4886777;29;20461;-89
2022/03/21 05:53:04;;;;;;;9.70;2.50;;;;;;;12.21;nan;101070.16;4884087;29;20445;-88
2022/03/21 05:55:32;;;;;;;10.47;1.63;;;;;;;12.22;nan;101081.97;4884045;29;20493;-88
2022/03/21 05:57:59;;;;;;;3.73;1.60;;;;;;;12.18;nan;101069.69;4883934;29;20453;-89
2022/03/21 06:00:27;;;;;;;6.40;1.63;;;;;;;12.17;nan;101068.84;4883842;29;20461;-89
2022/03/21 06:02:55;;;;;;;4.80;1.23;;;;;;;12.20;nan;101073.09;4883329;29;20505;-88
2022/03/21 06:05:23;;;;;;;4.93;1.40;;;;;;;12.18;nan;101076.03;4868745;29;20445;-89
2022/03/21 06:07:51;;;;;;;3.27;1.40;;;;;;;12.16;nan;101075.38;4868513;29;20980;-88
2022/03/21 06:10:20;;;;;;;7.90;1.60;;;;;;;12.19;nan;101088.69;4867820;29;20812;-88
2022/03/21 06:12:50;;;;;;;8.83;2.30;;;;;;;12.15;nan;101090.09;4882126;29;20528;-88
2022/03/21 06:15:18;;;;;;;5.40;1.73;;;;;;;12.16;nan;101088.22;4883472;29;20456;-88
2022/03/21 06:17:46;;;;;;;4.73;1.37;;;;;;;12.16;nan;101091.81;4899183;29;20462;-88
2022/03/21 06:20:15;;;;;;;9.17;1.40;;;;;;;12.08;nan;101070.88;4899564;29;20460;-88
2022/03/21 06:22:43;;;;;;;8.40;1.50;;;;;;;12.22;nan;101087.44;4883314;29;20454;-87
2022/03/21 06:25:11;;;;;;;5.37;1.53;;;;;;;12.24;nan;101082.63;4881310;29;21100;-88
2022/03/21 06:27:39;;;;;;;6.00;1.40;;;;;;;12.26;nan;101077.78;4868093;29;20921;-88
2022/03/21 06:30:08;;;;;;;13.57;1.53;;;;;;;12.31;nan;101076.16;4883792;29;20486;-88
2022/03/21 06:32:36;;;;;;;8.80;1.93;;;;;;;12.35;nan;101085.66;4898118;29;20488;-88
2022/03/21 06:35:05;;;;;;;7.87;2.00;;;;;;;12.42;nan;101094.81;4883071;29;20849;-88
2022/03/21 06:37:34;;;;;;;6.27;1.80;;;;;;;12.39;nan;101083.38;4867887;29;20829;-89
2022/03/21 06:40:02;;;;;;;8.63;1.30;;;;;;;12.49;nan;101094.88;4898488;29;20462;-88
2022/03/21 06:42:29;;;;;;;12.63;1.90;;;;;;;12.49;nan;101091.28;4864703;29;20462;-89
2022/03/21 06:44:58;;;;;;;17.43;3.03;;;;;;;12.53;nan;101101.63;4872788;29;20944;-89
2022/03/21 06:47:27;;;;;;;5.67;1.80;;;;;;;12.51;nan;101089.19;4898205;29;20462;-89
2022/03/21 06:49:55;;;;;;;16.17;5.07;;;;;;;12.57;nan;101107.56;4898037;29;20834;-89
2022/03/21 06:52:23;;;;;;;13.53;5.03;;;;;;;12.61;nan;101109.72;4897181;29;20462;-89
2022/03/21 06:54:51;;;;;;;12.83;3.90;;;;;;;12.64;nan;101114.81;4882990;29;20450;-88
2022/03/21 06:57:19;;;;;;;8.00;1.70;;;;;;;12.69;nan;101106.00;4890462;29;20599;-88
2022/03/21 06:59:47;;;;;;;12.90;2.07;;;;;;;12.72;nan;101116.56;4882802;29;20454;-88
2022/03/21 07:02:16;;;;;;;7.83;2.50;;;;;;;12.77;nan;101116.81;4881267;29;20468;-89
2022/03/21 07:04:45;;;;;;;9.63;2.03;;;;;;;12.75;nan;101110.66;4883170;29;20457;-88
2022/03/21 07:07:12;;;;;;;23.20;10.30;;;;;;;12.68;nan;101093.34;4883051;29;20429;-88
2022/03/21 07:09:41;;;;;;;20.93;9.07;;;;;;;12.79;nan;101114.72;4867025;29;20505;-89
2022/03/21 07:12:09;;;;;;;15.67;5.60;;;;;;;12.85;nan;101116.69;4882876;29;20465;-89
2022/03/21 07:14:36;;;;;;;12.47;4.90;;;;;;;12.85;nan;101116.69;4865281;29;20461;-87
2022/03/21 07:17:04;;;;;;;14.60;5.13;;;;;;;12.96;nan;101129.81;4864101;29;20497;-88
2022/03/21 07:19:32;;;;;;;24.07;7.10;;;;;;;13.04;nan;101120.59;4887352;29;20523;-89
2022/03/21 07:22:00;;;;;;;18.53;6.60;;;;;;;13.16;nan;101135.47;4883000;29;20457;-89
2022/03/21 07:24:28;;;;;;;19.30;5.57;;;;;;;13.20;nan;101123.06;4867852;29;20453;-89
2022/03/21 07:26:56;;;;;;;10.10;3.73;;;;;;;13.41;nan;101128.47;4897990;29;20509;-89
2022/03/21 07:29:25;;;;;;;19.23;6.03;;;;;;;13.53;nan;101128.72;4882416;29;20449;-89
2022/03/21 07:31:54;;;;;;;16.63;3.97;;;;;;;13.65;nan;101129.00;4897649;29;20992;-89
2022/03/21 07:34:24;;;;;;;15.40;4.53;;;;;;;13.80;nan;101125.06;4883108;29;20819;-89
2022/03/21 07:36:51;;;;;;;14.87;4.30;;;;;;;13.91;nan;101133.75;4882374;29;20490;-89
2022/03/21 07:39:21;;;;;;;11.40;4.53;;;;;;;14.00;nan;101138.00;4854858;29;20458;-89
2022/03/21 07:41:48;;;;;;;18.20;4.50;;;;;;;13.97;nan;101121.94;4889361;29;20485;-89
2022/03/21 07:47:17;;;;;;;11.37;3.83;;;;;;;14.06;nan;101135.25;4881735;29;20454;-89
2022/03/21 07:47:17;;;;;;;19.60;4.10;;;;;;;14.17;nan;101142.06;4883919;29;20445;-86
2022/03/21 07:49:46;;;;;;;13.30;3.90;;;;;;;14.22;nan;101141.47;4867769;29;20457;-86
2022/03/21 07:52:13;;;;;;;12.50;4.53;;;;;;;14.24;nan;101151.16;4881467;29;20836;-87
2022/03/21 07:54:41;;;;;;;18.60;4.33;;;;;;;14.24;nan;101147.59;4896407;29;20454;-86
2022/03/21 07:57:09;;;;;;;12.10;3.97;;;;;;;14.27;nan;101147.16;4823930;29;20477;-86
2022/03/21 07:59:37;;;;;;;21.07;3.43;;;;;;;14.33;nan;101155.44;4820939;29;20484;-86
2022/03/21 08:02:07;;;;;;;12.00;2.70;;;;;;;14.45;nan;101162.03;4824086;29;20986;-86
2022/03/21 08:04:35;;;;;;;16.70;3.90;;;;;;;14.54;nan;101159.09;4824477;29;20456;-86
2022/03/21 08:07:04;;;;;;;22.57;4.70;;;;;;;14.59;nan;101165.66;4854383;29;20441;-87
2022/03/21 08:09:32;;;;;;;24.23;3.97;;;;;;;14.60;nan;101150.88;4838401;29;20831;-86
2022/03/21 08:12:03;;;;;;;16.13;3.90;;;;;;;14.74;nan;101173.72;4854239;29;21014;-87
2022/03/21 08:14:31;;;;;;;14.87;2.87;;;;;;;14.73;nan;101167.38;4849135;29;20468;-86
2022/03/21 08:16:59;;;;;;;26.40;4.50;;;;;;;14.82;nan;101173.50;4881141;29;21055;-86
2022/03/21 08:19:29;;;;;;;18.87;3.43;;;;;;;14.90;nan;101180.69;4896265;29;20480;-86
2022/03/21 08:21:57;;;;;;;19.00;4.10;;;;;;;15.00;nan;101189.41;4896192;29;20961;-86
2022/03/21 08:24:24;;;;;;;14.60;3.60;;;;;;;14.99;nan;101191.31;4897873;29;20831;-86
2022/03/21 08:26:54;;;;;;;14.43;3.37;;;;;;;15.05;nan;101198.69;4880780;29;20450;-86
2022/03/21 08:29:23;;;;;;;20.77;4.23;;;;;;;15.01;nan;101191.91;4865420;29;20960;-86
2022/03/21 08:31:51;;;;;;;12.97;3.40;;;;;;;15.09;nan;101205.47;4885963;29;20481;-87
2022/03/21 08:34:19;;;;;;;17.13;3.40;;;;;;;15.19;nan;101205.91;4893248;29;20456;-86
2022/03/21 08:36:47;;;;;;;21.83;4.30;;;;;;;15.24;nan;101204.41;4881191;29;20517;-86
2022/03/21 08:39:15;;;;;;;28.53;4.70;;;;;;;15.30;nan;101201.66;4895698;29;20466;-86
2022/03/21 08:41:43;;;;;;;17.57;3.83;;;;;;;15.32;nan;101198.69;4865318;29;20449;-86
2022/03/21 08:44:11;;;;;;;21.70;4.53;;;;;;;15.42;nan;101210.94;4865116;29;20465;-86
2022/03/21 08:46:39;;;;;;;23.47;4.57;;;;;;;15.45;nan;101209.66;4880611;29;20458;-86
2022/03/21 08:49:27;;;;;;;17.60;4.13;;;;;;;15.50;nan;101218.16;4878066;29;20456;-88
2022/03/21 08:51:58;;;;;;;16.67;3.40;;;;;;;15.60;nan;101223.22;4909358;29;20461;-86
2022/03/21 08:54:27;;;;;;;16.03;4.50;;;;;;;15.69;nan;101233.84;4884365;29;20961;-86
2022/03/21 08:56:55;;;;;;;17.23;3.47;;;;;;;15.79;nan;101239.72;4891746;29;20513;-86
2022/03/21 08:59:23;;;;;;;18.07;3.13;;;;;;;15.86;nan;101251.59;4880331;29;20461;-87
2022/03/21 09:01:51;;;;;;;13.73;3.20;;;;;;;15.93;nan;101239.72;4880332;29;20468;-87
2022/03/21 09:04:19;;;;;;;30.63;4.03;;;;;;;16.05;nan;101249.00;4865217;29;20969;-86
2022/03/21 09:06:47;;;;;;;9.43;2.50;;;;;;;16.10;nan;101240.91;4881266;29;20892;-86
2022/03/21 09:09:18;;;;;;;14.83;2.50;;;;;;;16.17;nan;101250.00;4898034;29;20967;-87
2022/03/21 09:11:51;;;;;;;13.93;3.60;;;;;;;16.31;nan;101251.66;4894285;29;20441;-87
2022/03/21 09:14:18;;;;;;;14.70;4.17;;;;;;;16.42;nan;101259.22;4865773;29;20461;-86
2022/03/21 09:16:50;;;;;;;11.63;2.80;;;;;;;16.47;nan;101256.66;4879946;29;20485;-87
2022/03/21 09:19:19;;;;;;;12.43;2.60;;;;;;;16.50;nan;101263.66;4896490;29;20453;-89
2022/03/21 09:21:49;;;;;;;10.10;1.97;;;;;;;16.46;nan;101279.81;4868731;29;20465;-87
2022/03/21 09:24:16;;;;;;;8.30;2.83;;;;;;;16.36;nan;101273.03;4900265;29;20453;-87
2022/03/21 09:26:44;;;;;;;10.93;1.93;;;;;;;16.41;nan;101274.09;4883990;29;20452;-86
2022/03/21 09:29:12;;;;;;;13.43;2.77;;;;;;;16.52;nan;101289.13;4883835;29;20454;-86
2022/03/21 09:31:40;;;;;;;10.33;2.77;;;;;;;16.64;nan;101279.09;4899316;29;21034;-86
2022/03/21 09:34:09;;;;;;;8.77;2.30;;;;;;;16.73;nan;101277.78;4884552;29;20453;-86
2022/03/21 09:36:37;;;;;;;20.77;2.97;;;;;;;16.71;nan;101281.84;4894169;29;20477;-88
2022/03/21 09:39:05;;;;;;;21.03;3.77;;;;;;;16.55;nan;101272.94;4866800;29;20574;-89
2022/03/21 09:41:35;;;;;;;20.53;3.33;;;;;;;16.56;nan;101277.41;4827766;29;20455;-92
2022/03/21 09:44:07;;;;;;;12.17;2.57;;;;;;;16.54;nan;101276.81;4827475;29;20452;-89
2022/03/21 09:46:37;;;;;;;14.67;2.77;;;;;;;16.72;nan;101283.53;4812940;29;20448;-89
2022/03/21 09:49:05;;;;;;;8.27;2.80;;;;;;;16.83;nan;101282.81;4812848;29;20444;-87
2022/03/21 09:51:34;;;;;;;9.57;3.23;;;;;;;17.01;nan;101291.19;4809929;29;20493;-87
2022/03/21 09:54:02;;;;;;;8.97;2.73;;;;;;;17.16;nan;101291.72;4839000;29;20879;-87
2022/03/21 09:56:30;;;;;;;16.80;3.00;;;;;;;17.20;nan;101290.19;4805189;29;20523;-87
2022/03/21 09:59:01;;;;;;;11.63;3.20;;;;;;;17.29;nan;101288.03;4822514;29;20450;-86
2022/03/21 10:01:31;;;;;;;17.97;3.17;;;;;;;17.38;nan;101285.81;4880475;29;20973;-87
2022/03/21 10:04:01;;;;;;;13.10;2.80;;;;;;;17.44;nan;101285.75;4898760;29;20495;-87
2022/03/21 10:06:37;;;;;;;18.67;4.60;;;;;;;17.65;nan;101286.47;4899287;29;20464;-86
2022/03/21 10:09:15;;;;;;;17.20;3.13;;;;;;;17.87;nan;101288.56;4899151;29;20454;-84
2022/03/21 10:11:51;;;;;;;10.13;2.90;;;;;;;18.01;nan;101294.81;4898144;29;21197;-87
2022/03/21 10:14:36;;;;;;;18.80;3.23;;;;;;;18.06;nan;101300.50;4862645;29;20449;-86
2022/03/21 10:17:06;;;;;;;6.83;2.10;;;;;;;18.11;nan;101299.78;4899084;29;20488;-86
2022/03/21 10:19:42;;;;;;;11.30;2.93;;;;;;;18.18;nan;101295.88;4884022;29;20456;-87
2022/03/21 10:22:12;;;;;;;20.00;3.30;;;;;;;18.28;nan;101298.09;4868541;29;20825;-86
2022/03/21 10:24:42;;;;;;;15.77;3.70;;;;;;;18.42;nan;101288.56;4865740;29;20505;-86
2022/03/21 10:27:46;;;;;;;12.53;3.20;;;;;;;18.50;nan;101291.00;4894030;29;20450;-86
2022/03/21 10:30:22;;;;;;;11.93;3.50;;;;;;;18.48;nan;101295.94;4810202;29;20568;-86
2022/03/21 10:32:56;;;;;;;17.57;3.40;;;;;;;18.51;nan;101298.25;4825780;29;20484;-86
2022/03/21 10:35:30;;;;;;;12.37;2.67;;;;;;;18.51;nan;101292.69;4834190;29;20488;-86
2022/03/21 10:38:01;;;;;;;11.30;2.97;;;;;;;18.69;nan;101302.09;4841993;29;20513;-86
2022/03/21 10:40:54;;;;;;;17.30;3.60;;;;;;;18.79;nan;101319.00;4827106;29;21039;-86
2022/03/21 10:43:22;;;;;;;14.10;2.60;;;;;;;18.92;nan;101297.50;4838383;29;20460;-87
2022/03/21 10:45:53;;;;;;;15.57;2.90;;;;;;;19.04;nan;101316.09;4826152;29;20866;-86
2022/03/21 10:48:26;;;;;;;22.20;3.83;;;;;;;19.04;nan;101308.63;4837883;29;20453;-87
2022/03/21 10:50:54;;;;;;;17.50;4.00;;;;;;;18.95;nan;101302.56;4807043;29;20452;-86
2022/03/21 10:53:25;;;;;;;13.33;3.37;;;;;;;18.98;nan;101313.19;4808192;29;20881;-87
2022/03/21 10:56:10;;;;;;;24.27;3.67;;;;;;;19.14;nan;101308.03;4841428;29;20460;-86
2022/03/21 10:58:48;;;;;;;8.67;2.77;;;;;;;19.20;nan;101313.50;4807969;29;20582;-87
2022/03/21 11:01:17;;;;;;;10.50;3.17;;;;;;;19.27;nan;101314.22;4823056;29;20529;-86
2022/03/21 11:03:50;;;;;;;11.90;2.60;;;;;;;19.22;nan;101316.03;4839735;29;20466;-87
2022/03/21 11:06:18;;;;;;;15.33;3.63;;;;;;;19.17;nan;101316.75;4877907;29;20450;-87
2022/03/21 11:08:50;;;;;;;15.77;3.27;;;;;;;19.09;nan;101308.75;4868182;29;20964;-84
2022/03/21 11:11:19;;;;;;;10.47;3.10;;;;;;;19.07;nan;101310.06;4897619;29;20457;-87
2022/03/21 11:13:47;;;;;;;17.27;3.07;;;;;;;18.96;nan;101304.25;4876956;29;20462;-86
2022/03/21 11:16:18;;;;;;;15.10;3.47;;;;;;;18.85;nan;101310.63;4882733;29;20501;-87
2022/03/21 11:18:46;;;;;;;13.83;3.40;;;;;;;18.76;nan;101308.38;4882026;29;21018;-86
2022/03/21 11:21:16;;;;;;;10.47;3.37;;;;;;;18.90;nan;101323.75;4882683;29;20536;-87
2022/03/21 11:23:44;;;;;;;11.17;3.50;;;;;;;19.14;nan;101327.44;4875841;29;20453;-87
2022/03/21 11:26:37;;;;;;;16.90;3.33;;;;;;;19.31;nan;101334.00;4897303;29;20471;-87
2022/03/21 11:29:10;;;;;;;10.27;3.00;;;;;;;19.41;nan;101322.34;4913282;29;20456;-86
2022/03/21 11:31:57;;;;;;;15.93;3.30;;;;;;;19.49;nan;101330.28;4912797;29;20477;-86
2022/03/21 11:34:40;;;;;;;13.20;3.63;;;;;;;19.42;nan;101329.56;4889861;29;20461;-86
2022/03/21 11:37:24;;;;;;;11.20;3.07;;;;;;;19.45;nan;101321.59;4883600;29;20491;-86
2022/03/21 11:40:26;;;;;;;14.93;3.57;;;;;;;19.53;nan;101326.00;4873944;29;20458;-86
2022/03/21 11:43:19;;;;;;;11.43;3.30;;;;;;;19.49;nan;101333.91;4891548;29;20446;-86
2022/03/21 11:45:54;;;;;;;16.87;3.90;;;;;;;19.40;nan;101328.97;4896615;29;20465;-86
2022/03/21 11:48:22;;;;;;;16.17;3.70;;;;;;;19.25;nan;101348.78;4910127;29;20971;-87
2022/03/21 11:51:16;;;;;;;18.77;3.60;;;;;;;19.07;nan;101327.53;4897008;29;20462;-87
2022/03/21 11:53:47;;;;;;;20.57;4.60;;;;;;;18.92;nan;101338.19;4884775;29;20465;-87
2022/03/21 11:56:19;;;;;;;13.23;3.83;;;;;;;18.87;nan;101324.19;4896876;29;20453;-86
2022/03/21 11:58:47;;;;;;;19.60;4.17;;;;;;;19.10;nan;101329.84;4912604;29;20485;-86
2022/03/21 12:01:18;;;;;;;20.90;4.10;;;;;;;19.30;nan;101335.94;4895552;29;20454;-86
2022/03/21 12:03:46;;;;;;;9.30;2.80;;;;;;;19.41;nan;101325.97;4897666;29;20517;-86
2022/03/21 12:06:20;;;;;;;16.60;3.50;;;;;;;19.49;nan;101344.16;4880951;29;20450;-86
2022/03/21 12:08:56;;;;;;;14.20;3.37;;;;;;;19.54;nan;101327.69;4897509;29;20456;-87